createdAt,value
2022-10-13T00:00:28.600Z,9.25
2022-10-13T00:05:51.452Z,9.14
2022-10-13T00:10:53.847Z,9.02
2022-10-13T00:15:56.324Z,8.97
2022-10-13T00:20:59.002Z,8.92
2022-10-13T00:26:02.842Z,8.83
2022-10-13T00:31:08.195Z,8.69
2022-10-13T00:36:10.599Z,8.51
2022-10-13T00:41:13.075Z,8.38
2022-10-13T00:46:16.065Z,8.24
2022-10-13T00:51:21.306Z,8.03
2022-10-13T00:56:25.694Z,7.83
2022-10-13T01:01:28.659Z,7.68
2022-10-13T01:06:31.203Z,7.56
2022-10-13T01:11:36.515Z,7.43
2022-10-13T01:16:43.797Z,7.29
2022-10-13T01:21:49.115Z,7.18
2022-10-13T01:26:51.475Z,7.11
2022-10-13T01:31:56.794Z,7.02
2022-10-13T01:37:02.100Z,6.91
2022-10-13T01:42:11.396Z,6.81
2022-10-13T01:47:15.581Z,6.74
2022-10-13T01:52:20.460Z,6.69
2022-10-13T01:57:25.939Z,6.57
2022-10-13T02:02:31.934Z,6.43
2022-10-13T02:07:43.799Z,6.36
2022-10-13T02:12:49.131Z,6.32
2022-10-13T02:17:52.454Z,6.31
2022-10-13T02:22:57.381Z,6.37
2022-10-13T02:28:00.729Z,6.48
2022-10-13T02:33:03.324Z,6.64
2022-10-13T02:38:06.039Z,6.80
2022-10-13T02:43:08.451Z,6.96
2022-10-13T02:48:11.023Z,7.08
2022-10-13T02:53:13.418Z,7.17
2022-10-13T02:58:15.887Z,7.29
2022-10-13T03:03:18.307Z,7.37
2022-10-13T03:08:20.689Z,7.43
2022-10-13T03:13:23.183Z,7.52
2022-10-13T03:18:25.905Z,7.58
2022-10-13T03:23:28.493Z,7.64
2022-10-13T03:28:31.307Z,7.70
2022-10-13T03:33:33.825Z,7.80
2022-10-13T03:38:36.897Z,7.84
2022-10-13T03:43:39.881Z,7.86
2022-10-13T03:48:56.309Z,7.89
2022-10-13T03:53:58.707Z,7.93
2022-10-13T03:59:04.760Z,7.94
2022-10-13T04:04:10.253Z,7.93
2022-10-13T04:09:13.080Z,7.93
2022-10-13T04:14:15.457Z,7.97
2022-10-13T04:19:17.981Z,8.03
2022-10-13T04:24:20.447Z,8.08
2022-10-13T04:29:22.821Z,8.14
2022-10-13T04:34:25.259Z,8.18
2022-10-13T04:39:27.636Z,8.22
2022-10-13T04:44:31.005Z,8.25
2022-10-13T04:49:33.772Z,8.29
2022-10-13T04:54:36.165Z,8.29
2022-10-13T04:59:38.585Z,8.34
2022-10-13T05:04:41.005Z,8.44
2022-10-13T05:09:43.381Z,8.54
2022-10-13T05:14:45.873Z,8.59
2022-10-13T05:19:48.813Z,8.63
2022-10-13T05:24:51.225Z,8.67
2022-10-13T05:29:53.655Z,8.73
2022-10-13T05:34:56.036Z,8.78
2022-10-13T05:39:58.428Z,8.87
2022-10-13T05:45:00.856Z,8.98
2022-10-13T05:50:03.461Z,9.08
2022-10-13T05:55:08.996Z,9.20
2022-10-13T06:00:13.611Z,9.37
2022-10-13T06:05:18.129Z,9.56
2022-10-13T06:10:20.694Z,9.68
2022-10-13T06:15:27.849Z,9.79
2022-10-13T06:20:30.945Z,9.90
2022-10-13T06:25:33.402Z,10.00
2022-10-13T06:30:38.066Z,10.16
2022-10-13T06:35:40.562Z,10.37
2022-10-13T06:40:43.392Z,10.57
2022-10-13T06:45:45.854Z,10.74
2022-10-13T06:50:48.407Z,10.94
2022-10-13T06:55:52.555Z,11.17
2022-10-13T07:00:55.553Z,11.43
2022-10-13T07:06:00.758Z,11.70
2022-10-13T07:11:06.073Z,11.98
2022-10-13T07:16:09.056Z,12.24
2022-10-13T07:21:11.477Z,12.52
2022-10-13T07:26:14.912Z,12.79
2022-10-13T07:31:18.458Z,13.01
2022-10-13T07:36:20.908Z,13.22
2022-10-13T07:41:23.658Z,13.39
2022-10-13T07:46:26.092Z,13.57
2022-10-13T07:51:28.615Z,13.73
2022-10-13T07:56:31.111Z,13.85
2022-10-13T08:01:33.578Z,13.92
2022-10-13T08:06:36.031Z,14.02
2022-10-13T08:11:38.600Z,14.32
2022-10-13T08:16:44.286Z,14.46
2022-10-13T08:22:02.269Z,14.42
2022-10-13T08:27:04.783Z,14.41
2022-10-13T08:32:07.229Z,14.38
2022-10-13T08:37:12.543Z,14.38
2022-10-13T08:42:18.631Z,14.34
2022-10-13T08:47:24.133Z,14.34
2022-10-13T08:52:27.906Z,14.44
2022-10-13T08:57:30.538Z,14.61
2022-10-13T09:02:33.077Z,14.72
2022-10-13T09:07:37.079Z,14.80
2022-10-13T09:12:39.509Z,14.89
2022-10-13T09:17:42.173Z,14.98
2022-10-13T09:22:45.273Z,15.07
2022-10-13T09:27:49.958Z,15.20
2022-10-13T09:32:55.335Z,15.27
2022-10-13T09:38:00.725Z,15.31
2022-10-13T09:43:20.319Z,15.38
2022-10-13T09:48:25.327Z,15.46
2022-10-13T09:53:32.444Z,15.63
2022-10-13T09:58:38.431Z,15.86
2022-10-13T10:03:41.112Z,15.94
2022-10-13T10:09:02.750Z,16.02
2022-10-13T10:14:09.337Z,16.11
2022-10-13T10:19:12.721Z,16.29
2022-10-13T10:24:18.159Z,16.25
2022-10-13T10:29:23.604Z,16.23
2022-10-13T10:34:28.825Z,16.25
2022-10-13T10:39:34.557Z,16.21
2022-10-13T10:44:41.216Z,16.30
2022-10-13T10:49:44.236Z,16.24
2022-10-13T10:54:51.628Z,16.33
2022-10-13T10:59:56.949Z,16.56
2022-10-13T11:05:05.213Z,16.74
2022-10-13T11:10:09.832Z,16.79
2022-10-13T11:15:16.265Z,16.83
2022-10-13T11:20:20.701Z,17.11
2022-10-13T11:25:26.193Z,17.36
2022-10-13T11:30:31.669Z,17.60
2022-10-13T11:35:34.060Z,17.81
2022-10-13T11:40:39.408Z,17.70
2022-10-13T11:45:47.305Z,17.66
2022-10-13T11:50:49.723Z,17.62
2022-10-13T11:55:52.174Z,17.50
2022-10-13T12:00:55.532Z,17.69
2022-10-13T12:06:00.755Z,17.85
2022-10-13T12:11:07.374Z,17.78
2022-10-13T12:16:13.445Z,17.82
2022-10-13T12:27:56.193Z,17.77
2022-10-13T12:32:59.734Z,17.53
2022-10-13T12:38:05.064Z,17.46
2022-10-13T12:43:07.523Z,17.12
2022-10-13T12:48:28.764Z,17.09
2022-10-13T12:53:31.220Z,17.10
2022-10-13T12:58:34.727Z,17.06
2022-10-13T13:03:38.389Z,17.04
2022-10-13T13:08:42.492Z,16.95
2022-10-13T13:13:44.884Z,16.84
2022-10-13T13:18:48.414Z,16.70
2022-10-13T13:23:53.773Z,16.60
2022-10-13T13:28:56.905Z,16.50
2022-10-13T13:33:59.350Z,16.40
2022-10-13T13:39:01.693Z,16.27
2022-10-13T13:44:04.124Z,16.22
2022-10-13T13:49:06.524Z,16.20
2022-10-13T13:54:08.880Z,16.13
2022-10-13T13:59:13.750Z,16.06
2022-10-13T14:04:16.087Z,15.99
2022-10-13T14:09:18.594Z,16.08
2022-10-13T14:14:21.406Z,16.43
2022-10-13T14:19:23.832Z,16.78
2022-10-13T14:24:26.169Z,17.14
2022-10-13T14:29:28.533Z,17.38
2022-10-13T14:34:31.118Z,17.61
2022-10-13T14:39:33.715Z,17.32
2022-10-13T14:44:36.183Z,16.63
2022-10-13T14:49:38.601Z,16.05
2022-10-13T14:54:44.676Z,15.56
2022-10-13T14:59:47.576Z,15.16
2022-10-13T15:04:49.976Z,14.77
2022-10-13T15:10:04.182Z,14.43
2022-10-13T15:15:08.435Z,14.09
2022-10-13T15:20:11.044Z,13.76
2022-10-13T15:25:13.651Z,13.41
2022-10-13T15:30:16.046Z,13.04
2022-10-13T15:35:18.400Z,12.70
2022-10-13T15:40:20.743Z,12.34
2022-10-13T15:45:23.078Z,11.97
2022-10-13T15:50:25.533Z,11.63
2022-10-13T15:55:28.662Z,11.31
2022-10-13T16:00:31.157Z,11.00
2022-10-13T16:05:33.621Z,10.70
2022-10-13T16:10:38.195Z,10.42
2022-10-13T16:15:41.186Z,10.17
2022-10-13T16:20:45.300Z,9.93
2022-10-13T16:25:47.885Z,9.70
2022-10-13T16:30:50.303Z,9.49
2022-10-13T16:36:01.240Z,9.31
2022-10-13T16:41:06.797Z,9.16
2022-10-13T16:46:12.781Z,9.08
2022-10-13T16:51:16.741Z,9.03
2022-10-13T16:56:22.253Z,9.00
2022-10-13T17:01:25.732Z,8.91
2022-10-13T17:06:28.670Z,8.79
2022-10-13T17:11:31.867Z,8.64
2022-10-13T17:16:35.573Z,8.53
2022-10-13T17:21:38.050Z,8.44
2022-10-13T17:26:40.432Z,8.40
2022-10-13T17:31:43.768Z,8.33
2022-10-13T17:36:46.270Z,8.24
2022-10-13T17:41:48.870Z,8.13
2022-10-13T17:46:51.352Z,8.03
2022-10-13T17:51:54.586Z,7.97
2022-10-13T17:56:57.182Z,7.93
2022-10-13T18:01:59.682Z,7.87
2022-10-13T18:07:02.153Z,7.79
2022-10-13T18:12:04.629Z,7.73
2022-10-13T18:17:07.221Z,7.70
2022-10-13T18:22:09.594Z,7.69
2022-10-13T18:27:12.157Z,7.64
2022-10-13T18:32:14.538Z,7.56
2022-10-13T18:37:16.945Z,7.49
2022-10-13T18:42:19.333Z,7.44
2022-10-13T18:47:22.189Z,7.41
2022-10-13T18:52:24.924Z,7.35
2022-10-13T18:57:27.317Z,7.28
2022-10-13T19:09:00.460Z,7.23
2022-10-13T19:14:04.149Z,7.22
2022-10-13T19:19:08.807Z,7.21
2022-10-13T19:24:11.524Z,7.15
2022-10-13T19:29:15.505Z,7.11
2022-10-13T19:34:17.890Z,7.11
2022-10-13T19:40:11.273Z,7.10
2022-10-13T19:45:13.810Z,7.08
2022-10-13T19:50:16.219Z,7.04
2022-10-13T19:55:18.631Z,7.05
2022-10-13T20:00:21.094Z,7.09
2022-10-13T20:05:25.585Z,7.13
2022-10-13T20:10:28.071Z,7.15
2022-10-13T20:15:30.485Z,7.15
2022-10-13T20:20:34.212Z,7.19
2022-10-13T20:25:37.763Z,7.29
2022-10-13T20:30:40.224Z,7.39
2022-10-13T20:35:42.628Z,7.45
2022-10-13T20:40:45.086Z,7.48
2022-10-13T20:45:47.450Z,7.51
2022-10-13T20:50:49.829Z,7.55
2022-10-13T20:55:55.456Z,7.61
2022-10-13T21:00:57.975Z,7.63
2022-10-13T21:06:01.807Z,7.63
2022-10-13T21:11:06.808Z,7.66
2022-10-13T21:16:11.205Z,7.72
2022-10-13T21:21:13.981Z,7.78
2022-10-13T21:26:21.417Z,7.82
2022-10-13T21:31:24.703Z,7.82
2022-10-13T21:36:29.149Z,7.85
2022-10-13T21:41:31.651Z,7.87
2022-10-13T21:46:34.617Z,7.88
2022-10-13T21:51:38.347Z,7.82
2022-10-13T21:56:41.127Z,7.73
2022-10-13T22:01:43.965Z,7.64
2022-10-13T22:06:46.527Z,7.58
2022-10-13T22:11:52.842Z,7.52
2022-10-13T22:16:58.025Z,7.45
2022-10-13T22:22:00.457Z,7.37
2022-10-13T22:27:02.990Z,7.34
2022-10-13T22:32:05.537Z,7.34
2022-10-13T22:37:07.956Z,7.32
2022-10-13T22:42:10.348Z,7.31
2022-10-13T22:47:12.862Z,7.33
2022-10-13T22:52:15.243Z,7.36
2022-10-13T22:57:17.723Z,7.40
2022-10-13T23:02:20.130Z,7.42
2022-10-13T23:07:23.096Z,7.48
2022-10-13T23:12:25.818Z,7.53
2022-10-13T23:24:18.066Z,7.57
2022-10-13T23:29:20.477Z,7.58
2022-10-13T23:34:22.907Z,7.60
2022-10-13T23:39:25.438Z,7.62
2022-10-13T23:44:29.805Z,7.62
2022-10-13T23:49:32.241Z,7.59
2022-10-13T23:54:34.681Z,7.58
2022-10-13T23:59:37.275Z,7.58
